Terminal Aerodrome Forecast
Issued by NWS Tuscon, AZ

Home | Current Version | Previous Version | Text Only | Print | Product List | Glossary On
Versions: 1 2 3 4 5 6 7 8 9 10 11 12
000
FTUS45 KTWC 201134
TAFTUS
TAF
KTUS 201134Z 2012/2112 13006KT P6SM SCT110 BKN180
     FM202200 35005KT P6SM SCT100 BKN140
     FM210200 16008KT P6SM SCT090 BKN130=

USA.gov is the U.S. government's official web portal to all federal, state and local government web resources and services.